sensor_id;sensor_type;location;lat;lon;timestamp;P1;P2;P0
45990;PMS5003;31721;41.740;-88.000;2023-03-04T00:00:54;29;22;
45990;PMS5003;31721;41.740;-88.000;2023-03-04T00:03:23;20;18;
45990;PMS5003;31721;41.740;-88.000;2023-03-04T00:05:51;16;14;
45990;PMS5003;31721;41.740;-88.000;2023-03-04T00:08:19;24;18;
45990;PMS5003;31721;41.740;-88.000;2023-03-04T00:10:47;28;24;
45990;PMS5003;31721;41.740;-88.000;2023-03-04T00:13:15;14;14;
45990;PMS5003;31721;41.740;-88.000;2023-03-04T00:15:43;20;19;
45990;PMS5003;31721;41.740;-88.000;2023-03-04T00:18:11;19;16;
45990;PMS5003;31721;41.740;-88.000;2023-03-04T00:20:39;20;18;
45990;PMS5003;31721;41.740;-88.000;2023-03-04T00:23:07;14;12;
45990;PMS5003;31721;41.740;-88.000;2023-03-04T00:25:35;18;12;
45990;PMS5003;31721;41.740;-88.000;2023-03-04T00:28:03;18;14;
45990;PMS5003;31721;41.740;-88.000;2023-03-04T00:30:31;15;12;
45990;PMS5003;31721;41.740;-88.000;2023-03-04T00:33:00;14;14;
45990;PMS5003;31721;41.740;-88.000;2023-03-04T00:35:27;11;11;
45990;PMS5003;31721;41.740;-88.000;2023-03-04T00:37:55;14;11;
45990;PMS5003;31721;41.740;-88.000;2023-03-04T00:40:22;23;19;
45990;PMS5003;31721;41.740;-88.000;2023-03-04T00:42:50;12;10;
45990;PMS5003;31721;41.740;-88.000;2023-03-04T00:45:18;16;10;
45990;PMS5003;31721;41.740;-88.000;2023-03-04T00:47:45;15;14;
45990;PMS5003;31721;41.740;-88.000;2023-03-04T00:50:14;10;10;
45990;PMS5003;31721;41.740;-88.000;2023-03-04T00:52:42;14;11;
45990;PMS5003;31721;41.740;-88.000;2023-03-04T00:55:10;12;10;
45990;PMS5003;31721;41.740;-88.000;2023-03-04T00:57:38;12;11;
45990;PMS5003;31721;41.740;-88.000;2023-03-04T01:00:07;16;15;
45990;PMS5003;31721;41.740;-88.000;2023-03-04T01:02:36;15;10;
45990;PMS5003;31721;41.740;-88.000;2023-03-04T01:05:06;12;12;
45990;PMS5003;31721;41.740;-88.000;2023-03-04T01:07:35;15;12;
45990;PMS5003;31721;41.740;-88.000;2023-03-04T01:10:03;19;14;
45990;PMS5003;31721;41.740;-88.000;2023-03-04T01:12:32;15;12;
45990;PMS5003;31721;41.740;-88.000;2023-03-04T01:15:01;15;11;
45990;PMS5003;31721;41.740;-88.000;2023-03-04T01:17:29;19;12;
45990;PMS5003;31721;41.740;-88.000;2023-03-04T01:19:57;18;12;
45990;PMS5003;31721;41.740;-88.000;2023-03-04T01:22:25;14;10;
45990;PMS5003;31721;41.740;-88.000;2023-03-04T01:24:52;19;15;
45990;PMS5003;31721;41.740;-88.000;2023-03-04T01:27:20;18;16;
45990;PMS5003;31721;41.740;-88.000;2023-03-04T01:29:48;11;11;
45990;PMS5003;31721;41.740;-88.000;2023-03-04T01:32:15;15;15;
45990;PMS5003;31721;41.740;-88.000;2023-03-04T01:34:43;18;16;
45990;PMS5003;31721;41.740;-88.000;2023-03-04T01:37:11;15;14;
45990;PMS5003;31721;41.740;-88.000;2023-03-04T01:39:39;15;12;
45990;PMS5003;31721;41.740;-88.000;2023-03-04T01:42:11;16;15;
45990;PMS5003;31721;41.740;-88.000;2023-03-04T01:44:44;9;9;
45990;PMS5003;31721;41.740;-88.000;2023-03-04T01:47:12;11;9;
45990;PMS5003;31721;41.740;-88.000;2023-03-04T01:49:40;20;18;
45990;PMS5003;31721;41.740;-88.000;2023-03-04T01:52:09;15;12;
45990;PMS5003;31721;41.740;-88.000;2023-03-04T01:54:39;14;14;
45990;PMS5003;31721;41.740;-88.000;2023-03-04T01:57:09;11;11;
45990;PMS5003;31721;41.740;-88.000;2023-03-04T01:59:43;15;10;
45990;PMS5003;31721;41.740;-88.000;2023-03-04T02:02:11;18;15;
45990;PMS5003;31721;41.740;-88.000;2023-03-04T02:04:40;15;15;
45990;PMS5003;31721;41.740;-88.000;2023-03-04T02:07:09;18;16;
45990;PMS5003;31721;41.740;-88.000;2023-03-04T02:09:37;25;22;
45990;PMS5003;31721;41.740;-88.000;2023-03-04T02:12:05;16;10;
45990;PMS5003;31721;41.740;-88.000;2023-03-04T02:14:33;10;10;
45990;PMS5003;31721;41.740;-88.000;2023-03-04T02:17:01;14;12;
45990;PMS5003;31721;41.740;-88.000;2023-03-04T02:19:34;23;19;
45990;PMS5003;31721;41.740;-88.000;2023-03-04T02:22:07;16;12;
45990;PMS5003;31721;41.740;-88.000;2023-03-04T02:24:37;10;10;
45990;PMS5003;31721;41.740;-88.000;2023-03-04T02:27:09;14;11;
45990;PMS5003;31721;41.740;-88.000;2023-03-04T02:29:37;12;12;
45990;PMS5003;31721;41.740;-88.000;2023-03-04T02:32:05;10;10;
45990;PMS5003;31721;41.740;-88.000;2023-03-04T02:34:36;19;11;
45990;PMS5003;31721;41.740;-88.000;2023-03-04T02:37:08;18;15;
45990;PMS5003;31721;41.740;-88.000;2023-03-04T02:39:38;19;14;
45990;PMS5003;31721;41.740;-88.000;2023-03-04T02:42:08;15;11;
45990;PMS5003;31721;41.740;-88.000;2023-03-04T02:44:37;16;16;
45990;PMS5003;31721;41.740;-88.000;2023-03-04T02:47:08;12;9;
45990;PMS5003;31721;41.740;-88.000;2023-03-04T02:49:38;18;16;
45990;PMS5003;31721;41.740;-88.000;2023-03-04T02:52:08;17;15;
45990;PMS5003;31721;41.740;-88.000;2023-03-04T02:54:38;12;10;
45990;PMS5003;31721;41.740;-88.000;2023-03-04T02:57:06;11;10;
45990;PMS5003;31721;41.740;-88.000;2023-03-04T02:59:36;10;9;
45990;PMS5003;31721;41.740;-88.000;2023-03-04T03:02:05;13;11;
45990;PMS5003;31721;41.740;-88.000;2023-03-04T03:04:34;22;16;
45990;PMS5003;31721;41.740;-88.000;2023-03-04T03:07:04;19;14;
45990;PMS5003;31721;41.740;-88.000;2023-03-04T03:09:32;13;13;
45990;PMS5003;31721;41.740;-88.000;2023-03-04T03:12:00;11;10;
45990;PMS5003;31721;41.740;-88.000;2023-03-04T03:14:28;14;14;
45990;PMS5003;31721;41.740;-88.000;2023-03-04T03:16:56;15;13;
45990;PMS5003;31721;41.740;-88.000;2023-03-04T03:19:23;10;6;
45990;PMS5003;31721;41.740;-88.000;2023-03-04T03:21:51;18;14;
45990;PMS5003;31721;41.740;-88.000;2023-03-04T03:24:19;15;15;
45990;PMS5003;31721;41.740;-88.000;2023-03-04T03:26:47;21;19;
45990;PMS5003;31721;41.740;-88.000;2023-03-04T03:29:15;17;13;
45990;PMS5003;31721;41.740;-88.000;2023-03-04T03:31:43;22;19;
45990;PMS5003;31721;41.740;-88.000;2023-03-04T03:34:11;19;19;
45990;PMS5003;31721;41.740;-88.000;2023-03-04T03:36:38;20;17;
45990;PMS5003;31721;41.740;-88.000;2023-03-04T03:39:06;15;13;
45990;PMS5003;31721;41.740;-88.000;2023-03-04T03:41:33;22;20;
45990;PMS5003;31721;41.740;-88.000;2023-03-04T03:44:01;15;14;
45990;PMS5003;31721;41.740;-88.000;2023-03-04T03:46:29;27;20;
45990;PMS5003;31721;41.740;-88.000;2023-03-04T03:48:57;23;20;
45990;PMS5003;31721;41.740;-88.000;2023-03-04T03:51:25;22;16;
45990;PMS5003;31721;41.740;-88.000;2023-03-04T03:53:52;20;14;
45990;PMS5003;31721;41.740;-88.000;2023-03-04T03:56:20;14;14;
45990;PMS5003;31721;41.740;-88.000;2023-03-04T03:58:48;20;16;
45990;PMS5003;31721;41.740;-88.000;2023-03-04T04:01:16;19;16;
45990;PMS5003;31721;41.740;-88.000;2023-03-04T04:03:44;20;16;
45990;PMS5003;31721;41.740;-88.000;2023-03-04T04:06:11;26;19;
45990;PMS5003;31721;41.740;-88.000;2023-03-04T04:08:39;18;15;
45990;PMS5003;31721;41.740;-88.000;2023-03-04T04:11:08;15;13;
45990;PMS5003;31721;41.740;-88.000;2023-03-04T04:13:36;19;15;
45990;PMS5003;31721;41.740;-88.000;2023-03-04T04:16:04;18;15;
45990;PMS5003;31721;41.740;-88.000;2023-03-04T04:18:33;19;17;
45990;PMS5003;31721;41.740;-88.000;2023-03-04T04:21:01;19;15;
45990;PMS5003;31721;41.740;-88.000;2023-03-04T04:23:29;20;19;
45990;PMS5003;31721;41.740;-88.000;2023-03-04T04:25:57;21;19;
45990;PMS5003;31721;41.740;-88.000;2023-03-04T04:28:24;17;17;
45990;PMS5003;31721;41.740;-88.000;2023-03-04T04:30:52;22;17;
45990;PMS5003;31721;41.740;-88.000;2023-03-04T04:33:19;24;19;
45990;PMS5003;31721;41.740;-88.000;2023-03-04T04:35:47;21;17;
45990;PMS5003;31721;41.740;-88.000;2023-03-04T04:38:15;15;14;
45990;PMS5003;31721;41.740;-88.000;2023-03-04T04:40:43;15;13;
45990;PMS5003;31721;41.740;-88.000;2023-03-04T04:43:11;30;24;
45990;PMS5003;31721;41.740;-88.000;2023-03-04T04:45:40;15;15;
45990;PMS5003;31721;41.740;-88.000;2023-03-04T04:48:08;15;13;
45990;PMS5003;31721;41.740;-88.000;2023-03-04T04:50:35;19;19;
45990;PMS5003;31721;41.740;-88.000;2023-03-04T04:53:03;19;15;
45990;PMS5003;31721;41.740;-88.000;2023-03-04T04:55:32;22;21;
45990;PMS5003;31721;41.740;-88.000;2023-03-04T04:58:00;29;21;
45990;PMS5003;31721;41.740;-88.000;2023-03-04T05:00:28;19;17;
45990;PMS5003;31721;41.740;-88.000;2023-03-04T05:02:55;21;18;
45990;PMS5003;31721;41.740;-88.000;2023-03-04T05:05:23;26;23;
45990;PMS5003;31721;41.740;-88.000;2023-03-04T05:07:51;29;19;
45990;PMS5003;31721;41.740;-88.000;2023-03-04T05:10:19;26;22;
45990;PMS5003;31721;41.740;-88.000;2023-03-04T05:12:47;17;11;
45990;PMS5003;31721;41.740;-88.000;2023-03-04T05:15:15;27;22;
45990;PMS5003;31721;41.740;-88.000;2023-03-04T05:17:43;25;21;
45990;PMS5003;31721;41.740;-88.000;2023-03-04T05:20:11;19;17;
45990;PMS5003;31721;41.740;-88.000;2023-03-04T05:22:39;29;25;
45990;PMS5003;31721;41.740;-88.000;2023-03-04T05:25:06;21;18;
45990;PMS5003;31721;41.740;-88.000;2023-03-04T05:27:34;21;18;
45990;PMS5003;31721;41.740;-88.000;2023-03-04T05:30:02;26;22;
45990;PMS5003;31721;41.740;-88.000;2023-03-04T05:32:30;30;25;
45990;PMS5003;31721;41.740;-88.000;2023-03-04T05:34:57;22;22;
45990;PMS5003;31721;41.740;-88.000;2023-03-04T05:37:25;29;24;
45990;PMS5003;31721;41.740;-88.000;2023-03-04T05:39:53;24;20;
45990;PMS5003;31721;41.740;-88.000;2023-03-04T05:42:20;29;20;
45990;PMS5003;31721;41.740;-88.000;2023-03-04T05:44:48;28;26;
45990;PMS5003;31721;41.740;-88.000;2023-03-04T05:47:16;24;20;
45990;PMS5003;31721;41.740;-88.000;2023-03-04T05:49:44;26;20;
45990;PMS5003;31721;41.740;-88.000;2023-03-04T05:52:12;24;20;
45990;PMS5003;31721;41.740;-88.000;2023-03-04T05:54:40;28;26;
45990;PMS5003;31721;41.740;-88.000;2023-03-04T05:57:07;36;26;
45990;PMS5003;31721;41.740;-88.000;2023-03-04T05:59:35;28;28;
45990;PMS5003;31721;41.740;-88.000;2023-03-04T06:02:03;20;17;
45990;PMS5003;31721;41.740;-88.000;2023-03-04T06:04:30;32;28;
45990;PMS5003;31721;41.740;-88.000;2023-03-04T06:06:58;26;24;
45990;PMS5003;31721;41.740;-88.000;2023-03-04T06:09:27;26;25;
45990;PMS5003;31721;41.740;-88.000;2023-03-04T06:11:54;31;28;
45990;PMS5003;31721;41.740;-88.000;2023-03-04T06:14:22;28;25;
45990;PMS5003;31721;41.740;-88.000;2023-03-04T06:16:50;35;29;
45990;PMS5003;31721;41.740;-88.000;2023-03-04T06:19:17;43;26;
45990;PMS5003;31721;41.740;-88.000;2023-03-04T06:21:45;29;25;
45990;PMS5003;31721;41.740;-88.000;2023-03-04T06:24:13;29;26;
45990;PMS5003;31721;41.740;-88.000;2023-03-04T06:26:41;35;33;
45990;PMS5003;31721;41.740;-88.000;2023-03-04T06:29:09;28;25;
45990;PMS5003;31721;41.740;-88.000;2023-03-04T06:31:37;36;31;
45990;PMS5003;31721;41.740;-88.000;2023-03-04T06:34:05;33;28;
45990;PMS5003;31721;41.740;-88.000;2023-03-04T06:36:33;37;32;
45990;PMS5003;31721;41.740;-88.000;2023-03-04T06:39:01;33;29;
45990;PMS5003;31721;41.740;-88.000;2023-03-04T06:41:30;25;21;
45990;PMS5003;31721;41.740;-88.000;2023-03-04T06:43:57;29;25;
45990;PMS5003;31721;41.740;-88.000;2023-03-04T06:46:26;48;36;
45990;PMS5003;31721;41.740;-88.000;2023-03-04T06:48:53;43;29;
45990;PMS5003;31721;41.740;-88.000;2023-03-04T06:51:22;33;25;
45990;PMS5003;31721;41.740;-88.000;2023-03-04T06:53:49;32;25;
45990;PMS5003;31721;41.740;-88.000;2023-03-04T06:56:17;36;31;
45990;PMS5003;31721;41.740;-88.000;2023-03-04T06:58:45;36;29;
45990;PMS5003;31721;41.740;-88.000;2023-03-04T07:01:14;39;32;
45990;PMS5003;31721;41.740;-88.000;2023-03-04T07:03:44;38;28;
45990;PMS5003;31721;41.740;-88.000;2023-03-04T07:06:13;40;35;
45990;PMS5003;31721;41.740;-88.000;2023-03-04T07:08:43;43;34;
45990;PMS5003;31721;41.740;-88.000;2023-03-04T07:11:12;36;29;
45990;PMS5003;31721;41.740;-88.000;2023-03-04T07:13:40;32;29;
45990;PMS5003;31721;41.740;-88.000;2023-03-04T07:16:10;36;25;
45990;PMS5003;31721;41.740;-88.000;2023-03-04T07:18:39;31;24;
45990;PMS5003;31721;41.740;-88.000;2023-03-04T07:21:07;34;28;
45990;PMS5003;31721;41.740;-88.000;2023-03-04T07:23:35;37;36;
45990;PMS5003;31721;41.740;-88.000;2023-03-04T07:26:03;28;25;
45990;PMS5003;31721;41.740;-88.000;2023-03-04T07:28:31;25;23;
45990;PMS5003;31721;41.740;-88.000;2023-03-04T07:31:06;32;24;
45990;PMS5003;31721;41.740;-88.000;2023-03-04T07:33:35;31;26;
45990;PMS5003;31721;41.740;-88.000;2023-03-04T07:36:02;42;34;
45990;PMS5003;31721;41.740;-88.000;2023-03-04T07:38:30;39;30;
45990;PMS5003;31721;41.740;-88.000;2023-03-04T07:40:59;53;38;
45990;PMS5003;31721;41.740;-88.000;2023-03-04T07:43:27;38;32;
45990;PMS5003;31721;41.740;-88.000;2023-03-04T07:45:58;36;28;
45990;PMS5003;31721;41.740;-88.000;2023-03-04T07:48:27;43;35;
45990;PMS5003;31721;41.740;-88.000;2023-03-04T07:51:02;32;30;
45990;PMS5003;31721;41.740;-88.000;2023-03-04T07:53:32;39;31;
45990;PMS5003;31721;41.740;-88.000;2023-03-04T07:56:01;43;32;
45990;PMS5003;31721;41.740;-88.000;2023-03-04T07:58:30;42;36;
45990;PMS5003;31721;41.740;-88.000;2023-03-04T08:00:58;31;25;
45990;PMS5003;31721;41.740;-88.000;2023-03-04T08:03:26;32;30;
45990;PMS5003;31721;41.740;-88.000;2023-03-04T08:05:54;27;27;
45990;PMS5003;31721;41.740;-88.000;2023-03-04T08:08:22;38;34;
45990;PMS5003;31721;41.740;-88.000;2023-03-04T08:10:50;39;34;
45990;PMS5003;31721;41.740;-88.000;2023-03-04T08:13:18;34;31;
45990;PMS5003;31721;41.740;-88.000;2023-03-04T08:15:46;43;39;
45990;PMS5003;31721;41.740;-88.000;2023-03-04T08:18:13;41;38;
45990;PMS5003;31721;41.740;-88.000;2023-03-04T08:20:41;34;30;
45990;PMS5003;31721;41.740;-88.000;2023-03-04T08:23:09;42;32;
45990;PMS5003;31721;41.740;-88.000;2023-03-04T08:25:37;38;27;
45990;PMS5003;31721;41.740;-88.000;2023-03-04T08:28:06;48;34;
45990;PMS5003;31721;41.740;-88.000;2023-03-04T08:30:35;31;28;
45990;PMS5003;31721;41.740;-88.000;2023-03-04T08:33:03;24;23;
45990;PMS5003;31721;41.740;-88.000;2023-03-04T08:35:31;41;33;
45990;PMS5003;31721;41.740;-88.000;2023-03-04T08:38:01;37;28;
45990;PMS5003;31721;41.740;-88.000;2023-03-04T08:40:30;49;34;
45990;PMS5003;31721;41.740;-88.000;2023-03-04T08:42:57;39;24;
45990;PMS5003;31721;41.740;-88.000;2023-03-04T08:45:25;44;38;
45990;PMS5003;31721;41.740;-88.000;2023-03-04T08:47:53;37;31;
45990;PMS5003;31721;41.740;-88.000;2023-03-04T08:50:21;33;33;
45990;PMS5003;31721;41.740;-88.000;2023-03-04T08:52:49;44;35;
45990;PMS5003;31721;41.740;-88.000;2023-03-04T08:55:17;33;26;
45990;PMS5003;31721;41.740;-88.000;2023-03-04T08:57:45;48;37;
45990;PMS5003;31721;41.740;-88.000;2023-03-04T09:00:13;33;26;
45990;PMS5003;31721;41.740;-88.000;2023-03-04T09:02:42;37;31;
45990;PMS5003;31721;41.740;-88.000;2023-03-04T09:05:09;42;40;
45990;PMS5003;31721;41.740;-88.000;2023-03-04T09:07:37;45;32;
45990;PMS5003;31721;41.740;-88.000;2023-03-04T09:10:04;39;34;
45990;PMS5003;31721;41.740;-88.000;2023-03-04T09:12:32;50;41;
45990;PMS5003;31721;41.740;-88.000;2023-03-04T09:15:00;33;30;
45990;PMS5003;31721;41.740;-88.000;2023-03-04T09:17:28;34;31;
45990;PMS5003;31721;41.740;-88.000;2023-03-04T09:19:57;31;28;
45990;PMS5003;31721;41.740;-88.000;2023-03-04T09:22:25;40;35;
45990;PMS5003;31721;41.740;-88.000;2023-03-04T09:24:53;53;41;
45990;PMS5003;31721;41.740;-88.000;2023-03-04T09:27:20;37;31;
45990;PMS5003;31721;41.740;-88.000;2023-03-04T09:29:48;38;37;
45990;PMS5003;31721;41.740;-88.000;2023-03-04T09:32:15;51;45;
45990;PMS5003;31721;41.740;-88.000;2023-03-04T09:34:43;52;41;
45990;PMS5003;31721;41.740;-88.000;2023-03-04T09:37:11;44;34;
45990;PMS5003;31721;41.740;-88.000;2023-03-04T09:39:39;41;31;
45990;PMS5003;31721;41.740;-88.000;2023-03-04T09:42:07;45;34;
45990;PMS5003;31721;41.740;-88.000;2023-03-04T09:44:45;44;34;
45990;PMS5003;31721;41.740;-88.000;2023-03-04T09:47:14;41;35;
45990;PMS5003;31721;41.740;-88.000;2023-03-04T09:49:52;53;41;
45990;PMS5003;31721;41.740;-88.000;2023-03-04T09:52:27;53;41;
45990;PMS5003;31721;41.740;-88.000;2023-03-04T09:55:05;39;27;
45990;PMS5003;31721;41.740;-88.000;2023-03-04T09:57:45;51;45;
45990;PMS5003;31721;41.740;-88.000;2023-03-04T10:00:17;52;42;
45990;PMS5003;31721;41.740;-88.000;2023-03-04T10:02:57;44;35;
45990;PMS5003;31721;41.740;-88.000;2023-03-04T10:05:33;60;44;
45990;PMS5003;31721;41.740;-88.000;2023-03-04T10:08:06;40;36;
45990;PMS5003;31721;41.740;-88.000;2023-03-04T10:10:46;42;40;
45990;PMS5003;31721;41.740;-88.000;2023-03-04T10:13:28;47;40;
45990;PMS5003;31721;41.740;-88.000;2023-03-04T10:16:01;44;36;
45990;PMS5003;31721;41.740;-88.000;2023-03-04T10:18:31;45;33;
45990;PMS5003;31721;41.740;-88.000;2023-03-04T10:21:05;40;36;
45990;PMS5003;31721;41.740;-88.000;2023-03-04T10:23:40;40;29;
45990;PMS5003;31721;41.740;-88.000;2023-03-04T10:26:11;55;42;
45990;PMS5003;31721;41.740;-88.000;2023-03-04T10:28:40;48;41;
45990;PMS5003;31721;41.740;-88.000;2023-03-04T10:31:11;41;37;
45990;PMS5003;31721;41.740;-88.000;2023-03-04T10:33:45;36;31;
45990;PMS5003;31721;41.740;-88.000;2023-03-04T10:36:20;41;36;
45990;PMS5003;31721;41.740;-88.000;2023-03-04T10:39:00;29;24;
45990;PMS5003;31721;41.740;-88.000;2023-03-04T10:41:31;47;41;
45990;PMS5003;31721;41.740;-88.000;2023-03-04T10:44:00;51;42;
45990;PMS5003;31721;41.740;-88.000;2023-03-04T10:46:30;45;33;
45990;PMS5003;31721;41.740;-88.000;2023-03-04T10:48:59;56;47;
45990;PMS5003;31721;41.740;-88.000;2023-03-04T10:51:27;58;45;
45990;PMS5003;31721;41.740;-88.000;2023-03-04T10:53:56;42;34;
45990;PMS5003;31721;41.740;-88.000;2023-03-04T10:56:31;47;34;
45990;PMS5003;31721;41.740;-88.000;2023-03-04T11:00:19;42;36;
45990;PMS5003;31721;41.740;-88.000;2023-03-04T11:02:53;42;33;
45990;PMS5003;31721;41.740;-88.000;2023-03-04T11:05:48;45;42;
45990;PMS5003;31721;41.740;-88.000;2023-03-04T11:08:17;38;36;
45990;PMS5003;31721;41.740;-88.000;2023-03-04T11:10:46;45;36;
45990;PMS5003;31721;41.740;-88.000;2023-03-04T11:13:17;56;47;
45990;PMS5003;31721;41.740;-88.000;2023-03-04T11:15:48;37;31;
45990;PMS5003;31721;41.740;-88.000;2023-03-04T11:18:19;45;33;
45990;PMS5003;31721;41.740;-88.000;2023-03-04T11:20:49;45;37;
45990;PMS5003;31721;41.740;-88.000;2023-03-04T11:23:21;54;41;
45990;PMS5003;31721;41.740;-88.000;2023-03-04T11:25:58;42;33;
45990;PMS5003;31721;41.740;-88.000;2023-03-04T11:28:33;38;27;
45990;PMS5003;31721;41.740;-88.000;2023-03-04T11:31:09;37;34;
45990;PMS5003;31721;41.740;-88.000;2023-03-04T11:33:43;44;38;
45990;PMS5003;31721;41.740;-88.000;2023-03-04T11:36:20;47;40;
45990;PMS5003;31721;41.740;-88.000;2023-03-04T11:38:56;48;36;
45990;PMS5003;31721;41.740;-88.000;2023-03-04T11:41:24;42;40;
45990;PMS5003;31721;41.740;-88.000;2023-03-04T11:43:58;44;41;
45990;PMS5003;31721;41.740;-88.000;2023-03-04T11:46:38;31;30;
45990;PMS5003;31721;41.740;-88.000;2023-03-04T11:49:30;44;36;
45990;PMS5003;31721;41.740;-88.000;2023-03-04T11:52:15;45;38;
45990;PMS5003;31721;41.740;-88.000;2023-03-04T11:54:57;34;31;
45990;PMS5003;31721;41.740;-88.000;2023-03-04T11:57:39;48;40;
45990;PMS5003;31721;41.740;-88.000;2023-03-04T12:00:21;37;31;
45990;PMS5003;31721;41.740;-88.000;2023-03-04T12:03:03;36;29;
45990;PMS5003;31721;41.740;-88.000;2023-03-04T12:05:52;44;34;
45990;PMS5003;31721;41.740;-88.000;2023-03-04T12:08:29;27;25;
45990;PMS5003;31721;41.740;-88.000;2023-03-04T12:11:06;48;34;
45990;PMS5003;31721;41.740;-88.000;2023-03-04T12:14:48;62;54;
45990;PMS5003;31721;41.740;-88.000;2023-03-04T12:17:30;45;33;
45990;PMS5003;31721;41.740;-88.000;2023-03-04T12:20:14;50;37;
45990;PMS5003;31721;41.740;-88.000;2023-03-04T12:22:51;37;33;
45990;PMS5003;31721;41.740;-88.000;2023-03-04T12:25:32;38;36;
45990;PMS5003;31721;41.740;-88.000;2023-03-04T12:28:12;51;38;
45990;PMS5003;31721;41.740;-88.000;2023-03-04T12:30:58;36;30;
45990;PMS5003;31721;41.740;-88.000;2023-03-04T12:33:43;43;33;
45990;PMS5003;31721;41.740;-88.000;2023-03-04T12:36:26;46;44;
45990;PMS5003;31721;41.740;-88.000;2023-03-04T12:39:13;44;41;
45990;PMS5003;31721;41.740;-88.000;2023-03-04T12:41:50;36;32;
45990;PMS5003;31721;41.740;-88.000;2023-03-04T12:44:28;50;40;
45990;PMS5003;31721;41.740;-88.000;2023-03-04T12:47:06;36;29;
45990;PMS5003;31721;41.740;-88.000;2023-03-04T12:49:46;45;41;
45990;PMS5003;31721;41.740;-88.000;2023-03-04T12:52:24;54;47;
45990;PMS5003;31721;41.740;-88.000;2023-03-04T12:55:03;51;44;
45990;PMS5003;31721;41.740;-88.000;2023-03-04T12:57:38;42;33;
45990;PMS5003;31721;41.740;-88.000;2023-03-04T13:00:12;48;42;
45990;PMS5003;31721;41.740;-88.000;2023-03-04T13:02:50;40;34;
45990;PMS5003;31721;41.740;-88.000;2023-03-04T13:05:35;42;33;
45990;PMS5003;31721;41.740;-88.000;2023-03-04T13:08:14;47;38;
45990;PMS5003;31721;41.740;-88.000;2023-03-04T13:10:52;54;46;
45990;PMS5003;31721;41.740;-88.000;2023-03-04T13:13:35;52;40;
45990;PMS5003;31721;41.740;-88.000;2023-03-04T13:16:05;35;30;
45990;PMS5003;31721;41.740;-88.000;2023-03-04T13:18:55;38;30;
45990;PMS5003;31721;41.740;-88.000;2023-03-04T13:21:24;49;45;
45990;PMS5003;31721;41.740;-88.000;2023-03-04T13:23:53;46;42;
45990;PMS5003;31721;41.740;-88.000;2023-03-04T13:26:22;49;46;
45990;PMS5003;31721;41.740;-88.000;2023-03-04T13:29:08;47;40;
45990;PMS5003;31721;41.740;-88.000;2023-03-04T13:31:58;39;36;
45990;PMS5003;31721;41.740;-88.000;2023-03-04T13:34:45;52;43;
45990;PMS5003;31721;41.740;-88.000;2023-03-04T13:37:25;47;39;
45990;PMS5003;31721;41.740;-88.000;2023-03-04T13:44:58;50;45;
45990;PMS5003;31721;41.740;-88.000;2023-03-04T13:47:28;39;34;
45990;PMS5003;31721;41.740;-88.000;2023-03-04T13:50:24;42;31;
45990;PMS5003;31721;41.740;-88.000;2023-03-04T13:52:59;54;44;
45990;PMS5003;31721;41.740;-88.000;2023-03-04T13:55:45;55;42;
45990;PMS5003;31721;41.740;-88.000;2023-03-04T13:58:31;44;37;
45990;PMS5003;31721;41.740;-88.000;2023-03-04T14:01:01;40;35;
45990;PMS5003;31721;41.740;-88.000;2023-03-04T14:03:30;35;27;
45990;PMS5003;31721;41.740;-88.000;2023-03-04T14:06:08;41;36;
45990;PMS5003;31721;41.740;-88.000;2023-03-04T14:08:37;36;31;
45990;PMS5003;31721;41.740;-88.000;2023-03-04T14:11:09;36;31;
45990;PMS5003;31721;41.740;-88.000;2023-03-04T14:13:39;51;44;
45990;PMS5003;31721;41.740;-88.000;2023-03-04T14:16:07;42;34;
45990;PMS5003;31721;41.740;-88.000;2023-03-04T14:18:36;49;36;
45990;PMS5003;31721;41.740;-88.000;2023-03-04T14:21:03;35;32;
45990;PMS5003;31721;41.740;-88.000;2023-03-04T14:23:32;30;26;
45990;PMS5003;31721;41.740;-88.000;2023-03-04T14:26:03;43;38;
45990;PMS5003;31721;41.740;-88.000;2023-03-04T14:28:32;43;36;
45990;PMS5003;31721;41.740;-88.000;2023-03-04T14:31:09;40;35;
45990;PMS5003;31721;41.740;-88.000;2023-03-04T14:33:44;38;30;
45990;PMS5003;31721;41.740;-88.000;2023-03-04T14:36:15;36;31;
45990;PMS5003;31721;41.740;-88.000;2023-03-04T14:38:48;31;31;
45990;PMS5003;31721;41.740;-88.000;2023-03-04T14:41:21;44;37;
45990;PMS5003;31721;41.740;-88.000;2023-03-04T14:43:55;45;35;
45990;PMS5003;31721;41.740;-88.000;2023-03-04T14:46:30;31;25;
45990;PMS5003;31721;41.740;-88.000;2023-03-04T14:49:02;44;37;
45990;PMS5003;31721;41.740;-88.000;2023-03-04T14:51:32;41;31;
45990;PMS5003;31721;41.740;-88.000;2023-03-04T14:54:04;38;36;
45990;PMS5003;31721;41.740;-88.000;2023-03-04T14:56:33;38;32;
45990;PMS5003;31721;41.740;-88.000;2023-03-04T14:59:02;42;27;
45990;PMS5003;31721;41.740;-88.000;2023-03-04T15:01:31;45;39;
45990;PMS5003;31721;41.740;-88.000;2023-03-04T15:04:01;40;33;
45990;PMS5003;31721;41.740;-88.000;2023-03-04T15:06:31;31;25;
45990;PMS5003;31721;41.740;-88.000;2023-03-04T15:09:01;34;31;
45990;PMS5003;31721;41.740;-88.000;2023-03-04T15:11:32;42;36;
45990;PMS5003;31721;41.740;-88.000;2023-03-04T15:14:39;33;30;
45990;PMS5003;31721;41.740;-88.000;2023-03-04T15:17:18;25;24;
45990;PMS5003;31721;41.740;-88.000;2023-03-04T15:19:58;37;31;
45990;PMS5003;31721;41.740;-88.000;2023-03-04T15:22:28;33;29;
45990;PMS5003;31721;41.740;-88.000;2023-03-04T15:24:56;30;26;
45990;PMS5003;31721;41.740;-88.000;2023-03-04T15:27:25;29;23;
45990;PMS5003;31721;41.740;-88.000;2023-03-04T15:29:56;33;30;
45990;PMS5003;31721;41.740;-88.000;2023-03-04T15:32:25;27;23;
45990;PMS5003;31721;41.740;-88.000;2023-03-04T15:34:54;30;27;
45990;PMS5003;31721;41.740;-88.000;2023-03-04T15:37:22;29;26;
45990;PMS5003;31721;41.740;-88.000;2023-03-04T15:39:52;31;25;
45990;PMS5003;31721;41.740;-88.000;2023-03-04T15:42:22;37;31;
45990;PMS5003;31721;41.740;-88.000;2023-03-04T15:44:51;28;22;
45990;PMS5003;31721;41.740;-88.000;2023-03-04T15:47:19;48;32;
45990;PMS5003;31721;41.740;-88.000;2023-03-04T15:49:47;41;34;
45990;PMS5003;31721;41.740;-88.000;2023-03-04T15:52:16;32;26;
45990;PMS5003;31721;41.740;-88.000;2023-03-04T15:54:47;34;28;
45990;PMS5003;31721;41.740;-88.000;2023-03-04T15:57:17;24;23;
45990;PMS5003;31721;41.740;-88.000;2023-03-04T15:59:47;34;31;
45990;PMS5003;31721;41.740;-88.000;2023-03-04T16:02:18;28;28;
45990;PMS5003;31721;41.740;-88.000;2023-03-04T16:04:47;33;24;
45990;PMS5003;31721;41.740;-88.000;2023-03-04T16:07:16;33;28;
45990;PMS5003;31721;41.740;-88.000;2023-03-04T16:09:54;32;22;
45990;PMS5003;31721;41.740;-88.000;2023-03-04T16:12:24;27;25;
45990;PMS5003;31721;41.740;-88.000;2023-03-04T16:14:52;29;28;
45990;PMS5003;31721;41.740;-88.000;2023-03-04T16:17:20;31;30;